sensor_id;sensor_type;location;lat;lon;timestamp;temperature;humidity
52791;DHT22;41253;46.856;-71.574;2022-09-03T00:01:23;16.10;99.90
52791;DHT22;41253;46.856;-71.574;2022-09-03T00:03:54;16.00;99.90
52791;DHT22;41253;46.856;-71.574;2022-09-03T00:06:38;15.90;99.90
52791;DHT22;41253;46.856;-71.574;2022-09-03T00:09:27;15.80;99.90
52791;DHT22;41253;46.856;-71.574;2022-09-03T00:12:35;15.80;99.90
52791;DHT22;41253;46.856;-71.574;2022-09-03T00:15:24;15.60;99.90
52791;DHT22;41253;46.856;-71.574;2022-09-03T00:18:07;15.60;99.90
52791;DHT22;41253;46.856;-71.574;2022-09-03T00:20:43;15.50;99.90
52791;DHT22;41253;46.856;-71.574;2022-09-03T00:23:21;15.50;99.90
52791;DHT22;41253;46.856;-71.574;2022-09-03T00:28:58;15.30;99.90
52791;DHT22;41253;46.856;-71.574;2022-09-03T00:31:52;15.20;99.90
52791;DHT22;41253;46.856;-71.574;2022-09-03T00:34:48;15.00;99.90
52791;DHT22;41253;46.856;-71.574;2022-09-03T00:37:15;15.10;99.90
52791;DHT22;41253;46.856;-71.574;2022-09-03T00:39:42;15.10;99.90
52791;DHT22;41253;46.856;-71.574;2022-09-03T00:42:50;15.00;99.90
52791;DHT22;41253;46.856;-71.574;2022-09-03T00:45:49;14.90;99.90
52791;DHT22;41253;46.856;-71.574;2022-09-03T00:48:21;14.90;99.90
52791;DHT22;41253;46.856;-71.574;2022-09-03T00:57:01;14.70;99.90
52791;DHT22;41253;46.856;-71.574;2022-09-03T00:59:53;14.60;99.90
52791;DHT22;41253;46.856;-71.574;2022-09-03T01:02:32;14.60;99.90
52791;DHT22;41253;46.856;-71.574;2022-09-03T01:05:10;14.50;99.90
52791;DHT22;41253;46.856;-71.574;2022-09-03T01:10:51;14.20;99.90
52791;DHT22;41253;46.856;-71.574;2022-09-03T01:13:52;14.20;99.90
52791;DHT22;41253;46.856;-71.574;2022-09-03T01:16:43;14.20;99.90
52791;DHT22;41253;46.856;-71.574;2022-09-03T01:27:57;14.20;99.90
52791;DHT22;41253;46.856;-71.574;2022-09-03T01:30:24;14.10;99.90
52791;DHT22;41253;46.856;-71.574;2022-09-03T01:33:00;13.90;99.90
52791;DHT22;41253;46.856;-71.574;2022-09-03T01:46:42;13.80;99.90
52791;DHT22;41253;46.856;-71.574;2022-09-03T01:49:36;13.70;99.90
52791;DHT22;41253;46.856;-71.574;2022-09-03T01:52:20;13.70;99.90
52791;DHT22;41253;46.856;-71.574;2022-09-03T01:55:24;13.60;99.90
52791;DHT22;41253;46.856;-71.574;2022-09-03T01:58:18;13.70;99.90
52791;DHT22;41253;46.856;-71.574;2022-09-03T02:00:52;13.70;99.90
52791;DHT22;41253;46.856;-71.574;2022-09-03T02:03:23;13.50;99.90
52791;DHT22;41253;46.856;-71.574;2022-09-03T02:05:50;13.30;99.90
52791;DHT22;41253;46.856;-71.574;2022-09-03T02:08:18;13.30;99.90
52791;DHT22;41253;46.856;-71.574;2022-09-03T02:10:51;13.30;99.90
52791;DHT22;41253;46.856;-71.574;2022-09-03T02:14:09;13.40;99.90
52791;DHT22;41253;46.856;-71.574;2022-09-03T02:16:16;13.30;99.90
52791;DHT22;41253;46.856;-71.574;2022-09-03T02:18:49;13.40;99.90
52791;DHT22;41253;46.856;-71.574;2022-09-03T02:21:18;13.50;99.90
52791;DHT22;41253;46.856;-71.574;2022-09-03T02:23:45;13.50;99.90
52791;DHT22;41253;46.856;-71.574;2022-09-03T02:26:16;13.50;99.90
52791;DHT22;41253;46.856;-71.574;2022-09-03T02:28:43;13.50;99.90
52791;DHT22;41253;46.856;-71.574;2022-09-03T02:31:10;13.50;99.90
52791;DHT22;41253;46.856;-71.574;2022-09-03T02:33:39;13.60;99.90
52791;DHT22;41253;46.856;-71.574;2022-09-03T02:36:08;13.60;99.90
52791;DHT22;41253;46.856;-71.574;2022-09-03T02:38:36;13.60;99.90
52791;DHT22;41253;46.856;-71.574;2022-09-03T02:41:02;13.70;99.90
52791;DHT22;41253;46.856;-71.574;2022-09-03T02:46:47;13.60;99.90
52791;DHT22;41253;46.856;-71.574;2022-09-03T02:49:15;13.50;99.90
52791;DHT22;41253;46.856;-71.574;2022-09-03T02:51:42;13.50;99.90
52791;DHT22;41253;46.856;-71.574;2022-09-03T02:54:10;13.30;99.90
52791;DHT22;41253;46.856;-71.574;2022-09-03T02:56:37;13.20;99.90
52791;DHT22;41253;46.856;-71.574;2022-09-03T02:59:05;13.20;99.90
52791;DHT22;41253;46.856;-71.574;2022-09-03T03:01:32;13.30;99.90
52791;DHT22;41253;46.856;-71.574;2022-09-03T03:03:59;13.20;99.90
52791;DHT22;41253;46.856;-71.574;2022-09-03T03:06:26;13.00;99.90
52791;DHT22;41253;46.856;-71.574;2022-09-03T03:08:52;12.90;99.90
52791;DHT22;41253;46.856;-71.574;2022-09-03T03:11:21;12.80;99.90
52791;DHT22;41253;46.856;-71.574;2022-09-03T03:13:48;12.90;99.90
52791;DHT22;41253;46.856;-71.574;2022-09-03T03:16:16;12.90;99.90
52791;DHT22;41253;46.856;-71.574;2022-09-03T03:18:43;12.90;99.90
52791;DHT22;41253;46.856;-71.574;2022-09-03T03:21:13;12.60;99.90
52791;DHT22;41253;46.856;-71.574;2022-09-03T03:23:40;12.50;99.90
52791;DHT22;41253;46.856;-71.574;2022-09-03T03:26:09;12.40;99.90
52791;DHT22;41253;46.856;-71.574;2022-09-03T03:28:36;12.40;99.90
52791;DHT22;41253;46.856;-71.574;2022-09-03T03:31:07;12.40;99.90
52791;DHT22;41253;46.856;-71.574;2022-09-03T03:33:34;12.10;99.90
52791;DHT22;41253;46.856;-71.574;2022-09-03T03:36:19;12.00;99.90
52791;DHT22;41253;46.856;-71.574;2022-09-03T03:38:46;12.10;99.90
52791;DHT22;41253;46.856;-71.574;2022-09-03T03:41:18;12.20;99.90
52791;DHT22;41253;46.856;-71.574;2022-09-03T03:43:44;12.30;99.90
52791;DHT22;41253;46.856;-71.574;2022-09-03T03:46:11;12.30;99.90
52791;DHT22;41253;46.856;-71.574;2022-09-03T03:48:38;12.30;99.90
52791;DHT22;41253;46.856;-71.574;2022-09-03T03:51:07;12.30;99.90
52791;DHT22;41253;46.856;-71.574;2022-09-03T03:53:35;12.30;99.90
52791;DHT22;41253;46.856;-71.574;2022-09-03T03:56:06;12.20;99.90
52791;DHT22;41253;46.856;-71.574;2022-09-03T03:58:34;12.20;99.90
52791;DHT22;41253;46.856;-71.574;2022-09-03T04:01:20;12.30;99.90
52791;DHT22;41253;46.856;-71.574;2022-09-03T04:03:47;12.30;99.90
52791;DHT22;41253;46.856;-71.574;2022-09-03T04:06:17;12.30;99.90
52791;DHT22;41253;46.856;-71.574;2022-09-03T04:08:45;12.00;99.90
52791;DHT22;41253;46.856;-71.574;2022-09-03T04:11:15;12.00;99.90
52791;DHT22;41253;46.856;-71.574;2022-09-03T04:13:43;12.00;99.90
52791;DHT22;41253;46.856;-71.574;2022-09-03T04:16:15;12.00;99.90
52791;DHT22;41253;46.856;-71.574;2022-09-03T04:18:43;11.90;99.90
52791;DHT22;41253;46.856;-71.574;2022-09-03T04:21:12;12.00;99.90
52791;DHT22;41253;46.856;-71.574;2022-09-03T04:23:41;12.00;99.90
52791;DHT22;41253;46.856;-71.574;2022-09-03T04:26:09;12.00;99.90
52791;DHT22;41253;46.856;-71.574;2022-09-03T04:28:37;12.00;99.90
52791;DHT22;41253;46.856;-71.574;2022-09-03T04:31:05;11.90;99.90
52791;DHT22;41253;46.856;-71.574;2022-09-03T04:33:32;11.90;99.90
52791;DHT22;41253;46.856;-71.574;2022-09-03T04:38:37;11.80;99.90
52791;DHT22;41253;46.856;-71.574;2022-09-03T04:41:05;11.70;99.90
52791;DHT22;41253;46.856;-71.574;2022-09-03T04:43:32;11.50;99.90
52791;DHT22;41253;46.856;-71.574;2022-09-03T04:46:04;11.30;99.90
52791;DHT22;41253;46.856;-71.574;2022-09-03T04:48:31;11.30;99.90
52791;DHT22;41253;46.856;-71.574;2022-09-03T04:51:07;11.30;99.90
52791;DHT22;41253;46.856;-71.574;2022-09-03T04:53:39;11.20;99.90
52791;DHT22;41253;46.856;-71.574;2022-09-03T04:56:17;11.20;99.90
52791;DHT22;41253;46.856;-71.574;2022-09-03T04:58:44;11.20;99.90
52791;DHT22;41253;46.856;-71.574;2022-09-03T05:01:21;11.10;99.90
52791;DHT22;41253;46.856;-71.574;2022-09-03T05:03:48;11.10;99.90
52791;DHT22;41253;46.856;-71.574;2022-09-03T05:06:17;11.10;99.90
52791;DHT22;41253;46.856;-71.574;2022-09-03T05:08:48;11.20;99.90
52791;DHT22;41253;46.856;-71.574;2022-09-03T05:11:14;11.20;99.90
52791;DHT22;41253;46.856;-71.574;2022-09-03T05:13:41;11.20;99.90
52791;DHT22;41253;46.856;-71.574;2022-09-03T05:16:10;11.00;99.90
52791;DHT22;41253;46.856;-71.574;2022-09-03T05:18:38;10.80;99.90
52791;DHT22;41253;46.856;-71.574;2022-09-03T05:21:09;10.90;99.90
52791;DHT22;41253;46.856;-71.574;2022-09-03T05:23:38;10.90;99.90
52791;DHT22;41253;46.856;-71.574;2022-09-03T05:26:07;10.90;99.90
52791;DHT22;41253;46.856;-71.574;2022-09-03T05:28:36;10.90;99.90
52791;DHT22;41253;46.856;-71.574;2022-09-03T05:31:11;10.90;99.90
52791;DHT22;41253;46.856;-71.574;2022-09-03T05:33:42;11.00;99.90
52791;DHT22;41253;46.856;-71.574;2022-09-03T05:36:12;11.00;99.90
52791;DHT22;41253;46.856;-71.574;2022-09-03T05:38:39;11.10;99.90
52791;DHT22;41253;46.856;-71.574;2022-09-03T05:41:08;11.00;99.90
52791;DHT22;41253;46.856;-71.574;2022-09-03T05:43:34;10.90;99.90
52791;DHT22;41253;46.856;-71.574;2022-09-03T05:46:09;10.90;99.90
52791;DHT22;41253;46.856;-71.574;2022-09-03T05:48:37;10.90;99.90
52791;DHT22;41253;46.856;-71.574;2022-09-03T05:51:15;10.90;99.90
52791;DHT22;41253;46.856;-71.574;2022-09-03T05:53:46;10.90;99.90
52791;DHT22;41253;46.856;-71.574;2022-09-03T05:56:19;10.80;99.90
52791;DHT22;41253;46.856;-71.574;2022-09-03T05:58:50;10.70;99.90
52791;DHT22;41253;46.856;-71.574;2022-09-03T06:01:31;10.70;99.90
52791;DHT22;41253;46.856;-71.574;2022-09-03T06:04:06;10.70;99.90
52791;DHT22;41253;46.856;-71.574;2022-09-03T06:06:35;10.70;99.90
52791;DHT22;41253;46.856;-71.574;2022-09-03T06:09:04;10.60;99.90
52791;DHT22;41253;46.856;-71.574;2022-09-03T06:11:33;10.60;99.90
52791;DHT22;41253;46.856;-71.574;2022-09-03T06:14:02;10.40;99.90
52791;DHT22;41253;46.856;-71.574;2022-09-03T06:16:32;10.30;99.90
52791;DHT22;41253;46.856;-71.574;2022-09-03T06:18:59;10.20;99.90
52791;DHT22;41253;46.856;-71.574;2022-09-03T06:21:25;10.30;99.90
52791;DHT22;41253;46.856;-71.574;2022-09-03T06:23:54;10.40;99.90
52791;DHT22;41253;46.856;-71.574;2022-09-03T06:26:24;10.50;99.90
52791;DHT22;41253;46.856;-71.574;2022-09-03T06:28:52;10.50;99.90
52791;DHT22;41253;46.856;-71.574;2022-09-03T06:31:20;10.50;99.90
52791;DHT22;41253;46.856;-71.574;2022-09-03T06:33:47;10.50;99.90
52791;DHT22;41253;46.856;-71.574;2022-09-03T06:36:16;10.50;99.90
52791;DHT22;41253;46.856;-71.574;2022-09-03T06:38:43;10.40;99.90
52791;DHT22;41253;46.856;-71.574;2022-09-03T06:41:18;10.30;99.90
52791;DHT22;41253;46.856;-71.574;2022-09-03T06:43:48;10.30;99.90
52791;DHT22;41253;46.856;-71.574;2022-09-03T06:46:21;10.80;99.90
52791;DHT22;41253;46.856;-71.574;2022-09-03T06:48:48;10.10;99.90
52791;DHT22;41253;46.856;-71.574;2022-09-03T06:51:21;9.80;99.90
52791;DHT22;41253;46.856;-71.574;2022-09-03T06:53:52;9.80;99.90
52791;DHT22;41253;46.856;-71.574;2022-09-03T06:56:23;9.90;99.90
52791;DHT22;41253;46.856;-71.574;2022-09-03T06:58:54;10.00;99.90
52791;DHT22;41253;46.856;-71.574;2022-09-03T07:01:26;9.90;99.90
52791;DHT22;41253;46.856;-71.574;2022-09-03T07:03:56;9.80;99.90
52791;DHT22;41253;46.856;-71.574;2022-09-03T07:06:24;9.90;99.90
52791;DHT22;41253;46.856;-71.574;2022-09-03T07:08:52;9.80;99.90
52791;DHT22;41253;46.856;-71.574;2022-09-03T07:11:21;9.90;99.90
52791;DHT22;41253;46.856;-71.574;2022-09-03T07:13:51;9.90;99.90
52791;DHT22;41253;46.856;-71.574;2022-09-03T07:16:32;10.10;99.90
52791;DHT22;41253;46.856;-71.574;2022-09-03T07:19:00;10.10;99.90
52791;DHT22;41253;46.856;-71.574;2022-09-03T07:21:30;9.90;99.90
52791;DHT22;41253;46.856;-71.574;2022-09-03T07:23:57;9.60;99.90
52791;DHT22;41253;46.856;-71.574;2022-09-03T07:26:29;9.50;99.90
52791;DHT22;41253;46.856;-71.574;2022-09-03T07:28:56;9.40;99.90
52791;DHT22;41253;46.856;-71.574;2022-09-03T07:31:28;9.40;99.90
52791;DHT22;41253;46.856;-71.574;2022-09-03T07:33:57;9.50;99.90
52791;DHT22;41253;46.856;-71.574;2022-09-03T07:36:26;9.50;99.90
52791;DHT22;41253;46.856;-71.574;2022-09-03T07:38:57;9.60;99.90
52791;DHT22;41253;46.856;-71.574;2022-09-03T07:41:25;9.60;99.90
52791;DHT22;41253;46.856;-71.574;2022-09-03T07:43:52;9.60;99.90
52791;DHT22;41253;46.856;-71.574;2022-09-03T07:46:21;9.60;99.90
52791;DHT22;41253;46.856;-71.574;2022-09-03T07:48:56;9.60;99.90
52791;DHT22;41253;46.856;-71.574;2022-09-03T07:51:27;9.70;99.90
52791;DHT22;41253;46.856;-71.574;2022-09-03T07:53:56;9.70;99.90
52791;DHT22;41253;46.856;-71.574;2022-09-03T07:56:25;9.50;99.90
52791;DHT22;41253;46.856;-71.574;2022-09-03T07:58:52;9.50;99.90
52791;DHT22;41253;46.856;-71.574;2022-09-03T08:01:22;9.40;99.90
52791;DHT22;41253;46.856;-71.574;2022-09-03T08:03:51;9.50;99.90
52791;DHT22;41253;46.856;-71.574;2022-09-03T08:06:23;9.90;99.90
52791;DHT22;41253;46.856;-71.574;2022-09-03T08:09:03;10.00;99.90
52791;DHT22;41253;46.856;-71.574;2022-09-03T08:11:30;10.00;99.90
52791;DHT22;41253;46.856;-71.574;2022-09-03T08:13:59;10.00;99.90
52791;DHT22;41253;46.856;-71.574;2022-09-03T08:16:29;9.90;99.90
52791;DHT22;41253;46.856;-71.574;2022-09-03T08:18:56;9.90;99.90
52791;DHT22;41253;46.856;-71.574;2022-09-03T08:21:23;10.00;99.90
52791;DHT22;41253;46.856;-71.574;2022-09-03T08:23:51;10.10;99.90
52791;DHT22;41253;46.856;-71.574;2022-09-03T08:26:19;10.10;99.90
52791;DHT22;41253;46.856;-71.574;2022-09-03T08:28:47;10.00;99.90
52791;DHT22;41253;46.856;-71.574;2022-09-03T08:31:15;9.90;99.90
52791;DHT22;41253;46.856;-71.574;2022-09-03T08:33:50;9.90;99.90
52791;DHT22;41253;46.856;-71.574;2022-09-03T08:36:19;9.90;99.90
52791;DHT22;41253;46.856;-71.574;2022-09-03T08:38:48;9.80;99.90
52791;DHT22;41253;46.856;-71.574;2022-09-03T08:52:36;10.00;99.90
52791;DHT22;41253;46.856;-71.574;2022-09-03T08:57:46;10.00;99.90
52791;DHT22;41253;46.856;-71.574;2022-09-03T09:00:13;10.20;99.90
52791;DHT22;41253;46.856;-71.574;2022-09-03T09:05:17;10.00;99.90
52791;DHT22;41253;46.856;-71.574;2022-09-03T09:10:45;9.80;99.90
52791;DHT22;41253;46.856;-71.574;2022-09-03T09:16:08;9.60;99.90
52791;DHT22;41253;46.856;-71.574;2022-09-03T09:21:49;9.50;99.90
52791;DHT22;41253;46.856;-71.574;2022-09-03T09:24:21;9.60;99.90
52791;DHT22;41253;46.856;-71.574;2022-09-03T09:26:55;9.70;99.90
52791;DHT22;41253;46.856;-71.574;2022-09-03T09:29:30;9.60;99.90
52791;DHT22;41253;46.856;-71.574;2022-09-03T09:31:57;9.70;99.90
52791;DHT22;41253;46.856;-71.574;2022-09-03T09:34:24;9.70;99.90
52791;DHT22;41253;46.856;-71.574;2022-09-03T09:36:53;9.70;99.90
52791;DHT22;41253;46.856;-71.574;2022-09-03T09:39:21;9.80;99.90
52791;DHT22;41253;46.856;-71.574;2022-09-03T09:42:05;10.00;99.90
52791;DHT22;41253;46.856;-71.574;2022-09-03T09:44:42;10.10;99.90
52791;DHT22;41253;46.856;-71.574;2022-09-03T09:52:14;10.00;99.90
52791;DHT22;41253;46.856;-71.574;2022-09-03T09:54:42;9.80;99.90
52791;DHT22;41253;46.856;-71.574;2022-09-03T09:57:22;9.80;99.90
52791;DHT22;41253;46.856;-71.574;2022-09-03T09:59:48;9.80;99.90
52791;DHT22;41253;46.856;-71.574;2022-09-03T10:02:26;9.80;99.90
52791;DHT22;41253;46.856;-71.574;2022-09-03T10:05:11;9.70;99.90
52791;DHT22;41253;46.856;-71.574;2022-09-03T10:07:38;9.80;99.90
52791;DHT22;41253;46.856;-71.574;2022-09-03T10:10:16;9.80;99.90
52791;DHT22;41253;46.856;-71.574;2022-09-03T10:12:54;9.80;99.90
52791;DHT22;41253;46.856;-71.574;2022-09-03T10:18:43;9.80;99.90
52791;DHT22;41253;46.856;-71.574;2022-09-03T10:21:42;9.70;99.90
52791;DHT22;41253;46.856;-71.574;2022-09-03T10:26:58;9.70;99.90
52791;DHT22;41253;46.856;-71.574;2022-09-03T10:29:25;9.60;99.90
52791;DHT22;41253;46.856;-71.574;2022-09-03T10:37:40;9.80;99.90
52791;DHT22;41253;46.856;-71.574;2022-09-03T10:46:02;9.90;99.90
52791;DHT22;41253;46.856;-71.574;2022-09-03T10:48:38;9.80;99.90
52791;DHT22;41253;46.856;-71.574;2022-09-03T10:51:31;9.90;99.90
52791;DHT22;41253;46.856;-71.574;2022-09-03T10:54:15;9.90;99.90
52791;DHT22;41253;46.856;-71.574;2022-09-03T10:59:33;9.90;99.90
52791;DHT22;41253;46.856;-71.574;2022-09-03T11:02:38;10.10;99.90
52791;DHT22;41253;46.856;-71.574;2022-09-03T11:05:00;10.10;99.90
52791;DHT22;41253;46.856;-71.574;2022-09-03T11:07:35;10.20;99.90
52791;DHT22;41253;46.856;-71.574;2022-09-03T11:12:44;10.40;99.90
52791;DHT22;41253;46.856;-71.574;2022-09-03T11:15:23;10.40;99.90
52791;DHT22;41253;46.856;-71.574;2022-09-03T11:18:00;10.40;99.90
52791;DHT22;41253;46.856;-71.574;2022-09-03T11:20:29;10.50;99.90
52791;DHT22;41253;46.856;-71.574;2022-09-03T11:23:00;10.50;99.90
52791;DHT22;41253;46.856;-71.574;2022-09-03T11:25:40;10.60;99.90
52791;DHT22;41253;46.856;-71.574;2022-09-03T11:33:46;11.00;99.90
52791;DHT22;41253;46.856;-71.574;2022-09-03T11:36:13;11.10;99.90
52791;DHT22;41253;46.856;-71.574;2022-09-03T11:38:46;11.20;99.90
52791;DHT22;41253;46.856;-71.574;2022-09-03T11:41:14;11.50;99.90
52791;DHT22;41253;46.856;-71.574;2022-09-03T11:43:49;11.50;99.90
52791;DHT22;41253;46.856;-71.574;2022-09-03T11:48:53;11.80;99.90
52791;DHT22;41253;46.856;-71.574;2022-09-03T11:54:22;12.00;99.90
52791;DHT22;41253;46.856;-71.574;2022-09-03T11:57:02;12.20;99.90
52791;DHT22;41253;46.856;-71.574;2022-09-03T11:59:29;12.30;99.90
52791;DHT22;41253;46.856;-71.574;2022-09-03T12:02:10;12.50;99.90
52791;DHT22;41253;46.856;-71.574;2022-09-03T12:10:19;12.80;99.90
52791;DHT22;41253;46.856;-71.574;2022-09-03T12:13:35;12.90;99.90
52791;DHT22;41253;46.856;-71.574;2022-09-03T12:18:49;12.90;99.90
52791;DHT22;41253;46.856;-71.574;2022-09-03T12:21:18;13.00;99.90
52791;DHT22;41253;46.856;-71.574;2022-09-03T12:23:47;13.30;99.90
52791;DHT22;41253;46.856;-71.574;2022-09-03T12:28:46;13.60;99.90
52791;DHT22;41253;46.856;-71.574;2022-09-03T12:31:23;13.70;99.90
52791;DHT22;41253;46.856;-71.574;2022-09-03T12:33:53;14.00;99.90
52791;DHT22;41253;46.856;-71.574;2022-09-03T12:36:23;14.20;99.90
52791;DHT22;41253;46.856;-71.574;2022-09-03T12:38:49;14.50;99.90
52791;DHT22;41253;46.856;-71.574;2022-09-03T12:41:25;14.70;99.90
52791;DHT22;41253;46.856;-71.574;2022-09-03T12:43:57;14.90;99.90
52791;DHT22;41253;46.856;-71.574;2022-09-03T12:46:25;15.20;99.90
52791;DHT22;41253;46.856;-71.574;2022-09-03T12:49:00;15.70;99.90
52791;DHT22;41253;46.856;-71.574;2022-09-03T12:51:35;16.40;99.90
52791;DHT22;41253;46.856;-71.574;2022-09-03T12:54:07;17.10;99.90
52791;DHT22;41253;46.856;-71.574;2022-09-03T12:56:43;17.50;99.90
52791;DHT22;41253;46.856;-71.574;2022-09-03T12:59:16;18.10;99.90
52791;DHT22;41253;46.856;-71.574;2022-09-03T13:01:56;18.60;99.90
52791;DHT22;41253;46.856;-71.574;2022-09-03T13:04:34;18.80;99.90
52791;DHT22;41253;46.856;-71.574;2022-09-03T13:07:19;19.10;99.90
52791;DHT22;41253;46.856;-71.574;2022-09-03T13:09:47;19.70;99.90
52791;DHT22;41253;46.856;-71.574;2022-09-03T13:12:27;19.60;99.90
52791;DHT22;41253;46.856;-71.574;2022-09-03T13:14:54;19.70;99.90
52791;DHT22;41253;46.856;-71.574;2022-09-03T13:17:38;20.00;99.90
52791;DHT22;41253;46.856;-71.574;2022-09-03T13:33:48;20.90;99.90
52791;DHT22;41253;46.856;-71.574;2022-09-03T13:36:16;21.00;99.90
52791;DHT22;41253;46.856;-71.574;2022-09-03T13:39:08;21.10;99.90
52791;DHT22;41253;46.856;-71.574;2022-09-03T13:41:41;21.00;99.90
52791;DHT22;41253;46.856;-71.574;2022-09-03T13:44:35;20.80;99.90
52791;DHT22;41253;46.856;-71.574;2022-09-03T13:47:01;21.00;99.90
52791;DHT22;41253;46.856;-71.574;2022-09-03T13:49:37;21.30;99.90
52791;DHT22;41253;46.856;-71.574;2022-09-03T13:52:52;21.10;99.90
52791;DHT22;41253;46.856;-71.574;2022-09-03T13:58:24;21.60;99.90
52791;DHT22;41253;46.856;-71.574;2022-09-03T14:03:34;21.70;99.90
52791;DHT22;41253;46.856;-71.574;2022-09-03T14:11:22;22.10;99.90
52791;DHT22;41253;46.856;-71.574;2022-09-03T14:14:06;22.10;99.90
52791;DHT22;41253;46.856;-71.574;2022-09-03T14:16:42;21.70;99.90
52791;DHT22;41253;46.856;-71.574;2022-09-03T14:19:16;22.20;99.90
52791;DHT22;41253;46.856;-71.574;2022-09-03T14:22:24;22.20;99.90
52791;DHT22;41253;46.856;-71.574;2022-09-03T14:24:57;22.40;99.90
52791;DHT22;41253;46.856;-71.574;2022-09-03T14:27:31;22.30;99.90
52791;DHT22;41253;46.856;-71.574;2022-09-03T14:35:27;23.00;99.90
52791;DHT22;41253;46.856;-71.574;2022-09-03T14:38:17;22.90;99.90
52791;DHT22;41253;46.856;-71.574;2022-09-03T14:41:06;23.00;99.90
52791;DHT22;41253;46.856;-71.574;2022-09-03T14:44:40;23.30;99.90
52791;DHT22;41253;46.856;-71.574;2022-09-03T14:46:53;23.60;99.90
52791;DHT22;41253;46.856;-71.574;2022-09-03T14:57:46;23.70;99.90
52791;DHT22;41253;46.856;-71.574;2022-09-03T15:00:16;24.00;99.90
52791;DHT22;41253;46.856;-71.574;2022-09-03T15:05:41;24.40;99.90
52791;DHT22;41253;46.856;-71.574;2022-09-03T15:11:03;24.30;99.90
52791;DHT22;41253;46.856;-71.574;2022-09-03T15:13:33;24.20;99.90
52791;DHT22;41253;46.856;-71.574;2022-09-03T15:18:47;24.70;99.90
52791;DHT22;41253;46.856;-71.574;2022-09-03T15:21:29;24.80;99.90
52791;DHT22;41253;46.856;-71.574;2022-09-03T15:27:17;24.80;99.90
52791;DHT22;41253;46.856;-71.574;2022-09-03T15:29:56;24.60;99.90
52791;DHT22;41253;46.856;-71.574;2022-09-03T15:35:56;24.90;99.90
52791;DHT22;41253;46.856;-71.574;2022-09-03T15:41:30;25.20;99.90
52791;DHT22;41253;46.856;-71.574;2022-09-03T15:44:00;25.30;99.90
52791;DHT22;41253;46.856;-71.574;2022-09-03T15:46:36;25.90;99.90
52791;DHT22;41253;46.856;-71.574;2022-09-03T15:52:09;26.00;99.90
52791;DHT22;41253;46.856;-71.574;2022-09-03T16:00:18;25.80;99.90
52791;DHT22;41253;46.856;-71.574;2022-09-03T16:03:10;26.20;99.90
52791;DHT22;41253;46.856;-71.574;2022-09-03T16:06:05;26.60;99.90
52791;DHT22;41253;46.856;-71.574;2022-09-03T16:08:52;27.00;99.90
52791;DHT22;41253;46.856;-71.574;2022-09-03T16:11:44;27.10;99.90
52791;DHT22;41253;46.856;-71.574;2022-09-03T16:14:30;27.10;99.90
52791;DHT22;41253;46.856;-71.574;2022-09-03T16:17:17;26.40;99.90
52791;DHT22;41253;46.856;-71.574;2022-09-03T16:20:13;25.80;99.90
52791;DHT22;41253;46.856;-71.574;2022-09-03T16:22:50;25.70;99.90
52791;DHT22;41253;46.856;-71.574;2022-09-03T16:25:23;26.10;99.90
52791;DHT22;41253;46.856;-71.574;2022-09-03T16:28:09;25.90;99.90
52791;DHT22;41253;46.856;-71.574;2022-09-03T16:34:20;26.80;99.90
52791;DHT22;41253;46.856;-71.574;2022-09-03T16:44:45;26.40;99.90
52791;DHT22;41253;46.856;-71.574;2022-09-03T16:47:32;26.80;99.90
52791;DHT22;41253;46.856;-71.574;2022-09-03T16:58:10;26.30;99.90
52791;DHT22;41253;46.856;-71.574;2022-09-03T17:03:38;26.70;99.90
52791;DHT22;41253;46.856;-71.574;2022-09-03T17:11:32;26.70;99.90
52791;DHT22;41253;46.856;-71.574;2022-09-03T17:17:31;27.00;99.90
52791;DHT22;41253;46.856;-71.574;2022-09-03T17:20:28;27.10;99.90
52791;DHT22;41253;46.856;-71.574;2022-09-03T17:23:32;27.10;99.90
52791;DHT22;41253;46.856;-71.574;2022-09-03T17:40:40;27.00;99.90
52791;DHT22;41253;46.856;-71.574;2022-09-03T17:43:34;27.40;99.90
52791;DHT22;41253;46.856;-71.574;2022-09-03T17:49:02;26.90;99.90
52791;DHT22;41253;46.856;-71.574;2022-09-03T17:51:42;27.00;99.90
52791;DHT22;41253;46.856;-71.574;2022-09-03T17:59:46;26.70;99.90
52791;DHT22;41253;46.856;-71.574;2022-09-03T18:02:28;27.00;99.90
52791;DHT22;41253;46.856;-71.574;2022-09-03T18:05:18;27.10;99.90
52791;DHT22;41253;46.856;-71.574;2022-09-03T18:16:13;26.70;99.90
52791;DHT22;41253;46.856;-71.574;2022-09-03T18:18:49;26.70;99.90
52791;DHT22;41253;46.856;-71.574;2022-09-03T18:21:21;26.20;99.90
52791;DHT22;41253;46.856;-71.574;2022-09-03T18:24:39;26.20;99.90
52791;DHT22;41253;46.856;-71.574;2022-09-03T18:27:39;26.10;99.90
52791;DHT22;41253;46.856;-71.574;2022-09-03T18:30:26;26.20;99.90
52791;DHT22;41253;46.856;-71.574;2022-09-03T18:33:11;26.70;99.90
52791;DHT22;41253;46.856;-71.574;2022-09-03T18:35:58;27.30;99.90
52791;DHT22;41253;46.856;-71.574;2022-09-03T18:38:42;27.20;99.90
52791;DHT22;41253;46.856;-71.574;2022-09-03T18:42:04;26.70;99.90
52791;DHT22;41253;46.856;-71.574;2022-09-03T18:50:52;25.70;99.90
52791;DHT22;41253;46.856;-71.574;2022-09-03T18:56:51;25.70;99.90
52791;DHT22;41253;46.856;-71.574;2022-09-03T19:00:08;26.10;99.90
52791;DHT22;41253;46.856;-71.574;2022-09-03T19:06:21;26.60;99.90
52791;DHT22;41253;46.856;-71.574;2022-09-03T19:09:33;26.50;99.90
52791;DHT22;41253;46.856;-71.574;2022-09-03T19:12:38;26.80;99.90
52791;DHT22;41253;46.856;-71.574;2022-09-03T19:15:28;26.60;99.90
52791;DHT22;41253;46.856;-71.574;2022-09-03T19:24:07;26.30;99.90
52791;DHT22;41253;46.856;-71.574;2022-09-03T19:32:35;26.70;99.90
52791;DHT22;41253;46.856;-71.574;2022-09-03T19:35:31;26.60;99.90
52791;DHT22;41253;46.856;-71.574;2022-09-03T19:38:37;26.50;99.90
52791;DHT22;41253;46.856;-71.574;2022-09-03T19:41:53;26.40;99.90
52791;DHT22;41253;46.856;-71.574;2022-09-03T19:44:53;26.20;99.90
52791;DHT22;41253;46.856;-71.574;2022-09-03T19:51:13;25.30;99.90
52791;DHT22;41253;46.856;-71.574;2022-09-03T19:54:01;25.40;99.90
52791;DHT22;41253;46.856;-71.574;2022-09-03T19:56:48;25.80;99.90
52791;DHT22;41253;46.856;-71.574;2022-09-03T19:59:39;26.00;99.90
52791;DHT22;41253;46.856;-71.574;2022-09-03T20:02:24;26.10;99.90
52791;DHT22;41253;46.856;-71.574;2022-09-03T20:05:26;26.10;99.90
52791;DHT22;41253;46.856;-71.574;2022-09-03T20:08:15;26.20;99.90
52791;DHT22;41253;46.856;-71.574;2022-09-03T20:11:03;26.10;99.90
52791;DHT22;41253;46.856;-71.574;2022-09-03T20:13:30;26.00;99.90
52791;DHT22;41253;46.856;-71.574;2022-09-03T20:19:21;25.70;99.90
52791;DHT22;41253;46.856;-71.574;2022-09-03T20:27:18;25.50;99.90
52791;DHT22;41253;46.856;-71.574;2022-09-03T20:30:04;25.60;99.90
52791;DHT22;41253;46.856;-71.574;2022-09-03T20:41:28;25.10;99.90
52791;DHT22;41253;46.856;-71.574;2022-09-03T20:55:20;25.00;99.90